ZSPD/PVG METAR and TAF weather

Enter ICAO airport designator
Station Type Date Time Source
ZSPD METAR 2021/10/22 18:30 UTC NOAA

ZSPD 221830Z 33004MPS CAVOK 14/09 Q1027 NOSIG


Station Type Date Time Source
ZSPD Decoded METAR 2021/10/22 18:30 UTC NOAA

Shanghai / Pudong, China (ZSPD) 31-07N 121-46E
Oct 22, 2021 - 02:30 PM EDT / 2021.10.22 1830 UTC
Wind: from the NNW (330 degrees) at 9 MPH (8 KT):0
Visibility: greater than 7 mile(s):0
Temperature: 57 F (14 C)
Dew Point: 48 F (9 C)
Relative Humidity: 71%
Pressure (altimeter): 30.33 in. Hg (1027 hPa)
ob: ZSPD 221830Z 33004MPS CAVOK 14/09 Q1027 NOSIG
cycle: 18

Station Type Date Time Source
ZSPD TAF 2021/10/22 18:09 UTC NOAA

TAF ZSPD 221504Z 2218/2318 02004MPS 5000 HZ BKN015 TX19/2306Z TN12/2220Z

Example: see airport list